sensor_id;sensor_type;location;lat;lon;timestamp;P1;durP1;ratioP1;P2;durP2;ratioP2
8978;SDS011;4524;51.364;5.448;2023-04-15T00:02:18;7.10;;;4.20;;
8978;SDS011;4524;51.364;5.448;2023-04-15T00:04:47;7.57;;;4.30;;
8978;SDS011;4524;51.364;5.448;2023-04-15T00:07:15;7.37;;;4.70;;
8978;SDS011;4524;51.364;5.448;2023-04-15T00:09:43;8.37;;;4.30;;
8978;SDS011;4524;51.364;5.448;2023-04-15T00:12:11;8.73;;;4.27;;
8978;SDS011;4524;51.364;5.448;2023-04-15T00:14:39;7.03;;;4.60;;
8978;SDS011;4524;51.364;5.448;2023-04-15T00:17:07;6.73;;;4.13;;
8978;SDS011;4524;51.364;5.448;2023-04-15T00:19:35;9.63;;;4.50;;
8978;SDS011;4524;51.364;5.448;2023-04-15T00:22:04;7.47;;;4.60;;
8978;SDS011;4524;51.364;5.448;2023-04-15T00:24:33;11.17;;;4.90;;
8978;SDS011;4524;51.364;5.448;2023-04-15T00:27:01;6.63;;;4.30;;
8978;SDS011;4524;51.364;5.448;2023-04-15T00:29:29;7.40;;;4.13;;
8978;SDS011;4524;51.364;5.448;2023-04-15T00:31:57;8.57;;;4.60;;
8978;SDS011;4524;51.364;5.448;2023-04-15T00:34:25;8.77;;;4.70;;
8978;SDS011;4524;51.364;5.448;2023-04-15T00:36:54;5.77;;;4.23;;
8978;SDS011;4524;51.364;5.448;2023-04-15T00:39:23;9.27;;;5.00;;
8978;SDS011;4524;51.364;5.448;2023-04-15T00:41:51;8.90;;;4.73;;
8978;SDS011;4524;51.364;5.448;2023-04-15T00:44:20;7.17;;;4.70;;
8978;SDS011;4524;51.364;5.448;2023-04-15T00:46:49;6.77;;;4.50;;
8978;SDS011;4524;51.364;5.448;2023-04-15T00:49:18;9.80;;;4.80;;
8978;SDS011;4524;51.364;5.448;2023-04-15T00:51:46;7.63;;;4.40;;
8978;SDS011;4524;51.364;5.448;2023-04-15T00:54:14;7.67;;;5.00;;
8978;SDS011;4524;51.364;5.448;2023-04-15T00:56:43;7.97;;;4.80;;
8978;SDS011;4524;51.364;5.448;2023-04-15T00:59:12;6.03;;;5.30;;
8978;SDS011;4524;51.364;5.448;2023-04-15T01:01:40;6.67;;;4.60;;
8978;SDS011;4524;51.364;5.448;2023-04-15T01:04:10;7.10;;;4.80;;
8978;SDS011;4524;51.364;5.448;2023-04-15T01:06:39;6.97;;;5.13;;
8978;SDS011;4524;51.364;5.448;2023-04-15T01:09:06;8.70;;;5.10;;
8978;SDS011;4524;51.364;5.448;2023-04-15T01:11:36;7.70;;;4.70;;
8978;SDS011;4524;51.364;5.448;2023-04-15T01:14:08;9.57;;;4.23;;
8978;SDS011;4524;51.364;5.448;2023-04-15T01:16:36;6.43;;;4.80;;
8978;SDS011;4524;51.364;5.448;2023-04-15T01:19:06;7.87;;;4.80;;
8978;SDS011;4524;51.364;5.448;2023-04-15T01:21:35;9.43;;;4.80;;
8978;SDS011;4524;51.364;5.448;2023-04-15T01:24:05;6.27;;;4.43;;
8978;SDS011;4524;51.364;5.448;2023-04-15T01:26:37;6.70;;;4.83;;
8978;SDS011;4524;51.364;5.448;2023-04-15T01:29:06;7.17;;;5.00;;
8978;SDS011;4524;51.364;5.448;2023-04-15T01:31:35;6.77;;;4.90;;
8978;SDS011;4524;51.364;5.448;2023-04-15T01:34:03;6.57;;;4.40;;
8978;SDS011;4524;51.364;5.448;2023-04-15T01:36:31;8.10;;;4.67;;
8978;SDS011;4524;51.364;5.448;2023-04-15T01:39:00;9.83;;;5.17;;
8978;SDS011;4524;51.364;5.448;2023-04-15T01:41:28;9.20;;;4.77;;
8978;SDS011;4524;51.364;5.448;2023-04-15T01:43:57;8.70;;;4.90;;
8978;SDS011;4524;51.364;5.448;2023-04-15T01:46:25;7.27;;;5.20;;
8978;SDS011;4524;51.364;5.448;2023-04-15T01:48:53;7.33;;;5.00;;
8978;SDS011;4524;51.364;5.448;2023-04-15T01:51:23;7.00;;;5.13;;
8978;SDS011;4524;51.364;5.448;2023-04-15T01:53:52;7.47;;;4.70;;
8978;SDS011;4524;51.364;5.448;2023-04-15T01:56:22;6.23;;;5.07;;
8978;SDS011;4524;51.364;5.448;2023-04-15T01:58:51;6.30;;;4.70;;
8978;SDS011;4524;51.364;5.448;2023-04-15T02:01:20;8.90;;;5.47;;
8978;SDS011;4524;51.364;5.448;2023-04-15T02:03:48;8.07;;;5.20;;
8978;SDS011;4524;51.364;5.448;2023-04-15T02:06:16;7.00;;;4.63;;
8978;SDS011;4524;51.364;5.448;2023-04-15T02:08:44;5.47;;;4.30;;
8978;SDS011;4524;51.364;5.448;2023-04-15T02:11:12;9.03;;;5.20;;
8978;SDS011;4524;51.364;5.448;2023-04-15T02:13:40;9.43;;;5.30;;
8978;SDS011;4524;51.364;5.448;2023-04-15T02:16:14;7.50;;;5.67;;
8978;SDS011;4524;51.364;5.448;2023-04-15T02:18:44;7.93;;;5.30;;
8978;SDS011;4524;51.364;5.448;2023-04-15T02:21:13;9.33;;;5.47;;
8978;SDS011;4524;51.364;5.448;2023-04-15T02:23:41;10.60;;;5.90;;
8978;SDS011;4524;51.364;5.448;2023-04-15T02:26:11;10.03;;;6.07;;
8978;SDS011;4524;51.364;5.448;2023-04-15T02:28:39;6.73;;;5.40;;
8978;SDS011;4524;51.364;5.448;2023-04-15T02:31:07;8.17;;;6.23;;
8978;SDS011;4524;51.364;5.448;2023-04-15T02:33:35;9.73;;;6.20;;
8978;SDS011;4524;51.364;5.448;2023-04-15T02:36:05;9.50;;;6.17;;
8978;SDS011;4524;51.364;5.448;2023-04-15T02:38:34;13.13;;;7.13;;
8978;SDS011;4524;51.364;5.448;2023-04-15T02:41:03;10.13;;;7.07;;
8978;SDS011;4524;51.364;5.448;2023-04-15T02:43:33;8.63;;;6.50;;
8978;SDS011;4524;51.364;5.448;2023-04-15T02:46:01;7.73;;;6.67;;
8978;SDS011;4524;51.364;5.448;2023-04-15T02:48:29;11.10;;;7.37;;
8978;SDS011;4524;51.364;5.448;2023-04-15T02:51:11;9.73;;;7.70;;
8978;SDS011;4524;51.364;5.448;2023-04-15T02:53:40;10.57;;;7.43;;
8978;SDS011;4524;51.364;5.448;2023-04-15T02:56:08;10.33;;;7.77;;
8978;SDS011;4524;51.364;5.448;2023-04-15T02:58:36;11.33;;;8.90;;
8978;SDS011;4524;51.364;5.448;2023-04-15T03:01:05;12.10;;;9.00;;
8978;SDS011;4524;51.364;5.448;2023-04-15T03:03:34;10.63;;;8.63;;
8978;SDS011;4524;51.364;5.448;2023-04-15T03:06:02;10.87;;;8.70;;
8978;SDS011;4524;51.364;5.448;2023-04-15T03:08:32;11.90;;;9.13;;
8978;SDS011;4524;51.364;5.448;2023-04-15T03:10:59;12.00;;;9.87;;
8978;SDS011;4524;51.364;5.448;2023-04-15T03:13:28;13.00;;;9.60;;
8978;SDS011;4524;51.364;5.448;2023-04-15T03:15:57;10.70;;;8.57;;
8978;SDS011;4524;51.364;5.448;2023-04-15T03:18:26;11.27;;;9.73;;
8978;SDS011;4524;51.364;5.448;2023-04-15T03:20:58;13.57;;;9.30;;
8978;SDS011;4524;51.364;5.448;2023-04-15T03:23:27;11.23;;;9.87;;
8978;SDS011;4524;51.364;5.448;2023-04-15T03:25:57;12.17;;;9.43;;
8978;SDS011;4524;51.364;5.448;2023-04-15T03:28:29;12.17;;;9.80;;
8978;SDS011;4524;51.364;5.448;2023-04-15T03:30:58;12.80;;;9.47;;
8978;SDS011;4524;51.364;5.448;2023-04-15T03:33:26;12.00;;;9.60;;
8978;SDS011;4524;51.364;5.448;2023-04-15T03:35:54;12.83;;;9.50;;
8978;SDS011;4524;51.364;5.448;2023-04-15T03:38:22;13.13;;;9.77;;
8978;SDS011;4524;51.364;5.448;2023-04-15T03:40:50;10.83;;;9.73;;
8978;SDS011;4524;51.364;5.448;2023-04-15T03:43:19;12.17;;;9.67;;
8978;SDS011;4524;51.364;5.448;2023-04-15T03:45:47;13.43;;;10.67;;
8978;SDS011;4524;51.364;5.448;2023-04-15T03:48:15;13.30;;;10.20;;
8978;SDS011;4524;51.364;5.448;2023-04-15T03:50:44;13.00;;;9.67;;
8978;SDS011;4524;51.364;5.448;2023-04-15T03:53:12;12.70;;;9.73;;
8978;SDS011;4524;51.364;5.448;2023-04-15T03:55:40;13.93;;;10.40;;
8978;SDS011;4524;51.364;5.448;2023-04-15T03:58:08;13.37;;;10.00;;
8978;SDS011;4524;51.364;5.448;2023-04-15T04:00:39;12.93;;;10.50;;
8978;SDS011;4524;51.364;5.448;2023-04-15T04:03:07;12.60;;;10.33;;
8978;SDS011;4524;51.364;5.448;2023-04-15T04:05:36;13.93;;;10.23;;
8978;SDS011;4524;51.364;5.448;2023-04-15T04:08:06;11.67;;;10.23;;
8978;SDS011;4524;51.364;5.448;2023-04-15T04:10:34;11.83;;;9.27;;
8978;SDS011;4524;51.364;5.448;2023-04-15T04:13:02;12.20;;;9.73;;
8978;SDS011;4524;51.364;5.448;2023-04-15T04:15:30;14.67;;;10.17;;
8978;SDS011;4524;51.364;5.448;2023-04-15T04:17:59;12.90;;;9.60;;
8978;SDS011;4524;51.364;5.448;2023-04-15T04:20:27;11.10;;;9.90;;
8978;SDS011;4524;51.364;5.448;2023-04-15T04:22:57;12.50;;;10.43;;
8978;SDS011;4524;51.364;5.448;2023-04-15T04:25:25;12.67;;;10.40;;
8978;SDS011;4524;51.364;5.448;2023-04-15T04:27:53;15.30;;;10.73;;
8978;SDS011;4524;51.364;5.448;2023-04-15T04:30:21;12.23;;;11.03;;
8978;SDS011;4524;51.364;5.448;2023-04-15T04:32:49;12.87;;;10.60;;
8978;SDS011;4524;51.364;5.448;2023-04-15T04:35:18;14.73;;;10.30;;
8978;SDS011;4524;51.364;5.448;2023-04-15T04:37:47;16.07;;;11.23;;
8978;SDS011;4524;51.364;5.448;2023-04-15T04:40:15;13.20;;;10.40;;
8978;SDS011;4524;51.364;5.448;2023-04-15T04:42:42;16.97;;;10.33;;
8978;SDS011;4524;51.364;5.448;2023-04-15T04:45:11;11.50;;;10.23;;
8978;SDS011;4524;51.364;5.448;2023-04-15T04:47:39;17.20;;;11.10;;
8978;SDS011;4524;51.364;5.448;2023-04-15T04:50:07;12.70;;;9.83;;
8978;SDS011;4524;51.364;5.448;2023-04-15T04:52:37;12.80;;;10.17;;
8978;SDS011;4524;51.364;5.448;2023-04-15T04:55:06;15.63;;;10.93;;
8978;SDS011;4524;51.364;5.448;2023-04-15T04:57:34;11.63;;;10.10;;
8978;SDS011;4524;51.364;5.448;2023-04-15T05:00:03;15.37;;;10.97;;
8978;SDS011;4524;51.364;5.448;2023-04-15T05:02:32;13.77;;;10.27;;
8978;SDS011;4524;51.364;5.448;2023-04-15T05:05:00;13.10;;;10.10;;
8978;SDS011;4524;51.364;5.448;2023-04-15T05:07:28;11.67;;;9.63;;
8978;SDS011;4524;51.364;5.448;2023-04-15T05:09:57;13.97;;;10.47;;
8978;SDS011;4524;51.364;5.448;2023-04-15T05:12:25;13.43;;;9.93;;
8978;SDS011;4524;51.364;5.448;2023-04-15T05:14:53;12.83;;;9.80;;
8978;SDS011;4524;51.364;5.448;2023-04-15T05:17:21;14.23;;;9.93;;
8978;SDS011;4524;51.364;5.448;2023-04-15T05:19:49;12.47;;;10.37;;
8978;SDS011;4524;51.364;5.448;2023-04-15T05:22:18;11.13;;;9.80;;
8978;SDS011;4524;51.364;5.448;2023-04-15T05:24:46;14.27;;;10.20;;
8978;SDS011;4524;51.364;5.448;2023-04-15T05:27:16;11.07;;;9.37;;
8978;SDS011;4524;51.364;5.448;2023-04-15T05:29:44;14.70;;;9.57;;
8978;SDS011;4524;51.364;5.448;2023-04-15T05:32:12;16.57;;;10.23;;
8978;SDS011;4524;51.364;5.448;2023-04-15T05:34:40;12.20;;;9.50;;
8978;SDS011;4524;51.364;5.448;2023-04-15T05:37:08;15.33;;;9.53;;
8978;SDS011;4524;51.364;5.448;2023-04-15T05:39:36;11.13;;;9.23;;
8978;SDS011;4524;51.364;5.448;2023-04-15T05:42:04;14.53;;;9.47;;
8978;SDS011;4524;51.364;5.448;2023-04-15T05:44:34;10.07;;;9.07;;
8978;SDS011;4524;51.364;5.448;2023-04-15T05:47:02;11.20;;;9.13;;
8978;SDS011;4524;51.364;5.448;2023-04-15T05:49:31;11.43;;;9.17;;
8978;SDS011;4524;51.364;5.448;2023-04-15T05:51:59;13.00;;;9.40;;
8978;SDS011;4524;51.364;5.448;2023-04-15T05:54:27;10.60;;;9.07;;
8978;SDS011;4524;51.364;5.448;2023-04-15T05:56:54;11.47;;;9.30;;
8978;SDS011;4524;51.364;5.448;2023-04-15T05:59:23;11.70;;;9.77;;
8978;SDS011;4524;51.364;5.448;2023-04-15T06:01:53;11.77;;;9.73;;
8978;SDS011;4524;51.364;5.448;2023-04-15T06:04:21;15.20;;;8.97;;
8978;SDS011;4524;51.364;5.448;2023-04-15T06:06:49;11.23;;;9.23;;
8978;SDS011;4524;51.364;5.448;2023-04-15T06:09:17;10.87;;;9.43;;
8978;SDS011;4524;51.364;5.448;2023-04-15T06:11:45;12.27;;;9.63;;
8978;SDS011;4524;51.364;5.448;2023-04-15T06:14:13;12.03;;;9.37;;
8978;SDS011;4524;51.364;5.448;2023-04-15T06:16:41;11.27;;;9.53;;
8978;SDS011;4524;51.364;5.448;2023-04-15T06:19:10;11.03;;;9.40;;
8978;SDS011;4524;51.364;5.448;2023-04-15T06:21:39;11.83;;;9.60;;
8978;SDS011;4524;51.364;5.448;2023-04-15T06:24:07;11.93;;;8.90;;
8978;SDS011;4524;51.364;5.448;2023-04-15T06:26:35;10.50;;;9.40;;
8978;SDS011;4524;51.364;5.448;2023-04-15T06:29:03;10.47;;;8.93;;
8978;SDS011;4524;51.364;5.448;2023-04-15T06:31:31;11.97;;;9.93;;
8978;SDS011;4524;51.364;5.448;2023-04-15T06:33:59;11.70;;;9.43;;
8978;SDS011;4524;51.364;5.448;2023-04-15T06:36:28;10.87;;;9.20;;
8978;SDS011;4524;51.364;5.448;2023-04-15T06:38:57;9.97;;;8.73;;
8978;SDS011;4524;51.364;5.448;2023-04-15T06:41:26;10.33;;;8.90;;
8978;SDS011;4524;51.364;5.448;2023-04-15T06:43:54;11.17;;;9.20;;
8978;SDS011;4524;51.364;5.448;2023-04-15T06:46:22;11.63;;;8.80;;
8978;SDS011;4524;51.364;5.448;2023-04-15T06:48:50;10.80;;;8.70;;
8978;SDS011;4524;51.364;5.448;2023-04-15T06:51:18;10.20;;;8.57;;
8978;SDS011;4524;51.364;5.448;2023-04-15T06:53:48;10.23;;;9.13;;
8978;SDS011;4524;51.364;5.448;2023-04-15T06:56:16;11.77;;;8.70;;
8978;SDS011;4524;51.364;5.448;2023-04-15T06:58:43;9.90;;;8.77;;
8978;SDS011;4524;51.364;5.448;2023-04-15T07:01:12;11.10;;;8.57;;
8978;SDS011;4524;51.364;5.448;2023-04-15T07:03:40;9.77;;;8.30;;
8978;SDS011;4524;51.364;5.448;2023-04-15T07:06:08;9.27;;;8.17;;
8978;SDS011;4524;51.364;5.448;2023-04-15T07:08:36;8.93;;;8.03;;
8978;SDS011;4524;51.364;5.448;2023-04-15T07:11:05;9.70;;;8.70;;
8978;SDS011;4524;51.364;5.448;2023-04-15T07:13:33;9.73;;;8.67;;
8978;SDS011;4524;51.364;5.448;2023-04-15T07:16:02;9.57;;;8.53;;
8978;SDS011;4524;51.364;5.448;2023-04-15T07:18:30;10.43;;;8.63;;
8978;SDS011;4524;51.364;5.448;2023-04-15T07:20:58;10.80;;;9.40;;
8978;SDS011;4524;51.364;5.448;2023-04-15T07:23:26;11.10;;;8.83;;
8978;SDS011;4524;51.364;5.448;2023-04-15T07:25:54;9.83;;;8.20;;
8978;SDS011;4524;51.364;5.448;2023-04-15T07:28:24;8.97;;;8.07;;
8978;SDS011;4524;51.364;5.448;2023-04-15T07:30:51;8.67;;;7.80;;
8978;SDS011;4524;51.364;5.448;2023-04-15T07:33:19;9.87;;;8.47;;
8978;SDS011;4524;51.364;5.448;2023-04-15T07:35:47;9.03;;;8.13;;
8978;SDS011;4524;51.364;5.448;2023-04-15T07:38:15;9.00;;;8.03;;
8978;SDS011;4524;51.364;5.448;2023-04-15T07:40:43;9.57;;;7.43;;
8978;SDS011;4524;51.364;5.448;2023-04-15T07:43:12;11.60;;;7.97;;
8978;SDS011;4524;51.364;5.448;2023-04-15T07:45:42;9.13;;;8.00;;
8978;SDS011;4524;51.364;5.448;2023-04-15T07:48:10;9.60;;;6.70;;
8978;SDS011;4524;51.364;5.448;2023-04-15T07:50:38;8.40;;;7.50;;
8978;SDS011;4524;51.364;5.448;2023-04-15T07:53:05;7.90;;;7.10;;
8978;SDS011;4524;51.364;5.448;2023-04-15T07:55:34;9.30;;;7.50;;
8978;SDS011;4524;51.364;5.448;2023-04-15T07:58:02;7.67;;;6.87;;
8978;SDS011;4524;51.364;5.448;2023-04-15T08:00:30;7.70;;;6.93;;
8978;SDS011;4524;51.364;5.448;2023-04-15T08:02:59;7.67;;;6.70;;
8978;SDS011;4524;51.364;5.448;2023-04-15T08:05:28;6.73;;;5.70;;
8978;SDS011;4524;51.364;5.448;2023-04-15T08:07:56;7.23;;;5.80;;
8978;SDS011;4524;51.364;5.448;2023-04-15T08:10:24;5.80;;;5.20;;
8978;SDS011;4524;51.364;5.448;2023-04-15T08:12:53;7.43;;;5.80;;
8978;SDS011;4524;51.364;5.448;2023-04-15T08:15:21;7.77;;;5.67;;
8978;SDS011;4524;51.364;5.448;2023-04-15T08:17:49;6.47;;;5.77;;
8978;SDS011;4524;51.364;5.448;2023-04-15T08:20:19;6.80;;;5.40;;
8978;SDS011;4524;51.364;5.448;2023-04-15T08:22:47;6.03;;;5.40;;
8978;SDS011;4524;51.364;5.448;2023-04-15T08:25:17;5.60;;;5.10;;
8978;SDS011;4524;51.364;5.448;2023-04-15T08:27:46;7.73;;;5.60;;
8978;SDS011;4524;51.364;5.448;2023-04-15T08:30:14;5.83;;;5.33;;
8978;SDS011;4524;51.364;5.448;2023-04-15T08:32:44;6.50;;;5.47;;
8978;SDS011;4524;51.364;5.448;2023-04-15T08:35:13;5.80;;;5.30;;
8978;SDS011;4524;51.364;5.448;2023-04-15T08:37:43;7.23;;;6.00;;
8978;SDS011;4524;51.364;5.448;2023-04-15T08:40:11;8.77;;;5.67;;
8978;SDS011;4524;51.364;5.448;2023-04-15T08:42:40;6.73;;;6.00;;
8978;SDS011;4524;51.364;5.448;2023-04-15T08:45:15;6.47;;;5.87;;
8978;SDS011;4524;51.364;5.448;2023-04-15T08:47:44;6.83;;;5.73;;
8978;SDS011;4524;51.364;5.448;2023-04-15T08:50:16;7.83;;;6.00;;
8978;SDS011;4524;51.364;5.448;2023-04-15T08:52:49;6.50;;;5.50;;
8978;SDS011;4524;51.364;5.448;2023-04-15T08:55:20;7.17;;;6.03;;
8978;SDS011;4524;51.364;5.448;2023-04-15T08:57:49;7.67;;;5.77;;
8978;SDS011;4524;51.364;5.448;2023-04-15T09:00:17;6.60;;;5.33;;
8978;SDS011;4524;51.364;5.448;2023-04-15T09:02:46;6.40;;;4.57;;
8978;SDS011;4524;51.364;5.448;2023-04-15T09:05:14;6.03;;;4.60;;
8978;SDS011;4524;51.364;5.448;2023-04-15T09:07:42;5.93;;;4.90;;
8978;SDS011;4524;51.364;5.448;2023-04-15T09:10:12;6.63;;;4.43;;
8978;SDS011;4524;51.364;5.448;2023-04-15T09:12:40;6.23;;;4.43;;
8978;SDS011;4524;51.364;5.448;2023-04-15T09:15:09;4.50;;;3.90;;
8978;SDS011;4524;51.364;5.448;2023-04-15T09:17:40;5.23;;;3.83;;
8978;SDS011;4524;51.364;5.448;2023-04-15T09:20:10;7.53;;;4.60;;
8978;SDS011;4524;51.364;5.448;2023-04-15T09:22:39;9.47;;;3.80;;
8978;SDS011;4524;51.364;5.448;2023-04-15T09:25:28;5.73;;;4.33;;
8978;SDS011;4524;51.364;5.448;2023-04-15T09:28:00;5.90;;;3.90;;
8978;SDS011;4524;51.364;5.448;2023-04-15T09:30:29;6.77;;;4.37;;
8978;SDS011;4524;51.364;5.448;2023-04-15T09:32:57;4.70;;;4.00;;
8978;SDS011;4524;51.364;5.448;2023-04-15T09:35:27;5.60;;;4.40;;
8978;SDS011;4524;51.364;5.448;2023-04-15T09:38:00;4.87;;;4.27;;
8978;SDS011;4524;51.364;5.448;2023-04-15T09:40:34;5.27;;;4.77;;
8978;SDS011;4524;51.364;5.448;2023-04-15T09:43:03;4.73;;;3.90;;
8978;SDS011;4524;51.364;5.448;2023-04-15T09:45:33;4.70;;;3.90;;
8978;SDS011;4524;51.364;5.448;2023-04-15T09:48:14;6.57;;;4.10;;
8978;SDS011;4524;51.364;5.448;2023-04-15T09:50:43;4.13;;;3.73;;
8978;SDS011;4524;51.364;5.448;2023-04-15T09:53:14;4.83;;;4.30;;
8978;SDS011;4524;51.364;5.448;2023-04-15T09:55:45;5.10;;;4.60;;
8978;SDS011;4524;51.364;5.448;2023-04-15T09:58:19;4.63;;;4.23;;
8978;SDS011;4524;51.364;5.448;2023-04-15T10:00:49;5.07;;;4.57;;
8978;SDS011;4524;51.364;5.448;2023-04-15T10:03:18;6.17;;;4.33;;
8978;SDS011;4524;51.364;5.448;2023-04-15T10:05:48;5.30;;;4.80;;
8978;SDS011;4524;51.364;5.448;2023-04-15T10:08:18;5.50;;;4.30;;
8978;SDS011;4524;51.364;5.448;2023-04-15T10:10:50;4.53;;;3.70;;
8978;SDS011;4524;51.364;5.448;2023-04-15T10:13:19;4.73;;;4.00;;
8978;SDS011;4524;51.364;5.448;2023-04-15T10:15:49;4.30;;;3.90;;
8978;SDS011;4524;51.364;5.448;2023-04-15T10:18:21;4.23;;;3.80;;
8978;SDS011;4524;51.364;5.448;2023-04-15T10:20:51;3.53;;;3.23;;
8978;SDS011;4524;51.364;5.448;2023-04-15T10:23:21;4.80;;;3.47;;
8978;SDS011;4524;51.364;5.448;2023-04-15T10:25:51;3.87;;;2.83;;
8978;SDS011;4524;51.364;5.448;2023-04-15T10:28:20;3.30;;;3.00;;
8978;SDS011;4524;51.364;5.448;2023-04-15T10:30:48;5.37;;;3.40;;
8978;SDS011;4524;51.364;5.448;2023-04-15T10:33:18;3.90;;;3.60;;
8978;SDS011;4524;51.364;5.448;2023-04-15T10:35:49;3.70;;;3.07;;
8978;SDS011;4524;51.364;5.448;2023-04-15T10:41:12;4.60;;;3.77;;
8978;SDS011;4524;51.364;5.448;2023-04-15T10:43:49;4.57;;;4.10;;
8978;SDS011;4524;51.364;5.448;2023-04-15T10:46:20;4.73;;;4.00;;
8978;SDS011;4524;51.364;5.448;2023-04-15T10:48:49;3.97;;;3.57;;
8978;SDS011;4524;51.364;5.448;2023-04-15T10:51:28;3.97;;;3.57;;
8978;SDS011;4524;51.364;5.448;2023-04-15T10:53:57;3.73;;;2.87;;
8978;SDS011;4524;51.364;5.448;2023-04-15T10:56:28;2.90;;;2.47;;
8978;SDS011;4524;51.364;5.448;2023-04-15T10:58:57;4.30;;;3.00;;
8978;SDS011;4524;51.364;5.448;2023-04-15T11:07:32;2.53;;;2.30;;
8978;SDS011;4524;51.364;5.448;2023-04-15T11:10:01;3.20;;;2.10;;
8978;SDS011;4524;51.364;5.448;2023-04-15T11:12:34;3.07;;;2.77;;
8978;SDS011;4524;51.364;5.448;2023-04-15T11:18:07;2.90;;;2.60;;
8978;SDS011;4524;51.364;5.448;2023-04-15T11:20:37;2.60;;;2.33;;
8978;SDS011;4524;51.364;5.448;2023-04-15T11:23:07;3.50;;;2.20;;
8978;SDS011;4524;51.364;5.448;2023-04-15T11:25:41;3.03;;;1.90;;
8978;SDS011;4524;51.364;5.448;2023-04-15T11:28:11;2.67;;;1.80;;
8978;SDS011;4524;51.364;5.448;2023-04-15T11:30:39;3.77;;;2.60;;
8978;SDS011;4524;51.364;5.448;2023-04-15T11:33:10;4.10;;;2.60;;
8978;SDS011;4524;51.364;5.448;2023-04-15T11:35:39;4.30;;;2.60;;
8978;SDS011;4524;51.364;5.448;2023-04-15T11:38:08;2.63;;;2.33;;
8978;SDS011;4524;51.364;5.448;2023-04-15T11:40:38;3.13;;;2.20;;
8978;SDS011;4524;51.364;5.448;2023-04-15T11:43:08;2.40;;;2.20;;
8978;SDS011;4524;51.364;5.448;2023-04-15T11:45:47;2.10;;;1.90;;
8978;SDS011;4524;51.364;5.448;2023-04-15T11:48:19;2.97;;;2.37;;
8978;SDS011;4524;51.364;5.448;2023-04-15T11:50:52;2.50;;;2.00;;
8978;SDS011;4524;51.364;5.448;2023-04-15T11:53:21;2.27;;;2.07;;
8978;SDS011;4524;51.364;5.448;2023-04-15T11:55:50;5.77;;;2.73;;
8978;SDS011;4524;51.364;5.448;2023-04-15T11:58:20;3.80;;;2.90;;
8978;SDS011;4524;51.364;5.448;2023-04-15T12:00:50;2.83;;;2.30;;
8978;SDS011;4524;51.364;5.448;2023-04-15T12:03:20;3.60;;;2.57;;
8978;SDS011;4524;51.364;5.448;2023-04-15T12:06:06;3.43;;;2.60;;
8978;SDS011;4524;51.364;5.448;2023-04-15T12:08:49;4.43;;;2.87;;
8978;SDS011;4524;51.364;5.448;2023-04-15T12:11:29;3.70;;;2.90;;
8978;SDS011;4524;51.364;5.448;2023-04-15T12:14:01;3.37;;;2.53;;
8978;SDS011;4524;51.364;5.448;2023-04-15T12:16:32;3.30;;;3.00;;
8978;SDS011;4524;51.364;5.448;2023-04-15T12:19:13;3.10;;;2.77;;
8978;SDS011;4524;51.364;5.448;2023-04-15T12:21:43;5.43;;;3.17;;
8978;SDS011;4524;51.364;5.448;2023-04-15T12:24:13;2.90;;;2.70;;
8978;SDS011;4524;51.364;5.448;2023-04-15T12:26:44;3.00;;;2.23;;
8978;SDS011;4524;51.364;5.448;2023-04-15T12:29:15;2.70;;;2.20;;
8978;SDS011;4524;51.364;5.448;2023-04-15T12:31:50;2.93;;;2.07;;
8978;SDS011;4524;51.364;5.448;2023-04-15T12:34:24;2.40;;;2.20;;
8978;SDS011;4524;51.364;5.448;2023-04-15T12:36:55;2.40;;;2.20;;
8978;SDS011;4524;51.364;5.448;2023-04-15T12:39:25;2.73;;;2.50;;
8978;SDS011;4524;51.364;5.448;2023-04-15T12:41:56;3.27;;;2.80;;
8978;SDS011;4524;51.364;5.448;2023-04-15T12:44:25;4.10;;;2.80;;
8978;SDS011;4524;51.364;5.448;2023-04-15T12:46:54;2.47;;;2.27;;
8978;SDS011;4524;51.364;5.448;2023-04-15T12:49:22;3.33;;;2.30;;
8978;SDS011;4524;51.364;5.448;2023-04-15T12:51:51;3.23;;;2.20;;
8978;SDS011;4524;51.364;5.448;2023-04-15T12:54:20;3.20;;;2.10;;
8978;SDS011;4524;51.364;5.448;2023-04-15T12:56:48;2.27;;;2.07;;
8978;SDS011;4524;51.364;5.448;2023-04-15T12:59:17;3.40;;;2.20;;
8978;SDS011;4524;51.364;5.448;2023-04-15T13:01:46;3.40;;;2.47;;
8978;SDS011;4524;51.364;5.448;2023-04-15T13:04:15;2.60;;;2.40;;
8978;SDS011;4524;51.364;5.448;2023-04-15T13:06:43;4.83;;;2.27;;
8978;SDS011;4524;51.364;5.448;2023-04-15T13:09:11;2.70;;;2.50;;
8978;SDS011;4524;51.364;5.448;2023-04-15T13:11:39;3.50;;;2.83;;
8978;SDS011;4524;51.364;5.448;2023-04-15T13:14:08;3.60;;;2.33;;
8978;SDS011;4524;51.364;5.448;2023-04-15T13:16:36;4.67;;;2.73;;
8978;SDS011;4524;51.364;5.448;2023-04-15T13:19:06;2.67;;;2.40;;
8978;SDS011;4524;51.364;5.448;2023-04-15T13:21:34;2.43;;;2.23;;
8978;SDS011;4524;51.364;5.448;2023-04-15T13:24:02;4.07;;;1.80;;
8978;SDS011;4524;51.364;5.448;2023-04-15T13:26:32;2.33;;;2.10;;
8978;SDS011;4524;51.364;5.448;2023-04-15T13:29:02;3.60;;;2.60;;
8978;SDS011;4524;51.364;5.448;2023-04-15T13:31:30;3.70;;;2.03;;
8978;SDS011;4524;51.364;5.448;2023-04-15T13:33:58;2.30;;;2.10;;
8978;SDS011;4524;51.364;5.448;2023-04-15T13:36:27;2.83;;;2.13;;
8978;SDS011;4524;51.364;5.448;2023-04-15T13:38:55;2.50;;;2.30;;
8978;SDS011;4524;51.364;5.448;2023-04-15T13:41:25;2.20;;;2.00;;
8978;SDS011;4524;51.364;5.448;2023-04-15T13:43:53;3.67;;;2.00;;
8978;SDS011;4524;51.364;5.448;2023-04-15T13:46:20;2.77;;;2.00;;
8978;SDS011;4524;51.364;5.448;2023-04-15T13:48:48;2.40;;;2.20;;
8978;SDS011;4524;51.364;5.448;2023-04-15T13:51:16;1.80;;;1.37;;
8978;SDS011;4524;51.364;5.448;2023-04-15T13:53:46;3.87;;;2.00;;
8978;SDS011;4524;51.364;5.448;2023-04-15T13:56:13;2.87;;;1.90;;
8978;SDS011;4524;51.364;5.448;2023-04-15T13:58:41;2.10;;;1.90;;
8978;SDS011;4524;51.364;5.448;2023-04-15T14:01:09;2.30;;;1.90;;
8978;SDS011;4524;51.364;5.448;2023-04-15T14:03:37;2.00;;;1.80;;
8978;SDS011;4524;51.364;5.448;2023-04-15T14:06:06;1.70;;;1.60;;
8978;SDS011;4524;51.364;5.448;2023-04-15T14:08:34;1.77;;;1.67;;
8978;SDS011;4524;51.364;5.448;2023-04-15T14:11:03;1.90;;;1.80;;
8978;SDS011;4524;51.364;5.448;2023-04-15T14:13:31;2.90;;;1.87;;
8978;SDS011;4524;51.364;5.448;2023-04-15T14:15:59;2.90;;;1.80;;
8978;SDS011;4524;51.364;5.448;2023-04-15T14:18:27;4.93;;;2.00;;
8978;SDS011;4524;51.364;5.448;2023-04-15T14:20:55;2.17;;;1.97;;
8978;SDS011;4524;51.364;5.448;2023-04-15T14:23:23;2.20;;;1.70;;
8978;SDS011;4524;51.364;5.448;2023-04-15T14:25:51;2.93;;;2.20;;
8978;SDS011;4524;51.364;5.448;2023-04-15T14:28:21;3.13;;;1.87;;
8978;SDS011;4524;51.364;5.448;2023-04-15T14:30:49;1.90;;;1.70;;
8978;SDS011;4524;51.364;5.448;2023-04-15T14:33:17;3.53;;;1.97;;
8978;SDS011;4524;51.364;5.448;2023-04-15T14:35:45;3.10;;;1.80;;
8978;SDS011;4524;51.364;5.448;2023-04-15T14:38:13;2.40;;;2.10;;
8978;SDS011;4524;51.364;5.448;2023-04-15T14:40:41;1.73;;;1.43;;
8978;SDS011;4524;51.364;5.448;2023-04-15T14:43:09;1.70;;;1.60;;
8978;SDS011;4524;51.364;5.448;2023-04-15T14:45:39;1.70;;;1.60;;
8978;SDS011;4524;51.364;5.448;2023-04-15T14:48:10;3.57;;;1.27;;
8978;SDS011;4524;51.364;5.448;2023-04-15T14:50:38;2.47;;;1.70;;
8978;SDS011;4524;51.364;5.448;2023-04-15T14:53:07;2.47;;;1.63;;
8978;SDS011;4524;51.364;5.448;2023-04-15T14:55:35;3.37;;;1.60;;
8978;SDS011;4524;51.364;5.448;2023-04-15T14:58:04;3.30;;;1.60;;
8978;SDS011;4524;51.364;5.448;2023-04-15T15:00:33;2.50;;;1.60;;
8978;SDS011;4524;51.364;5.448;2023-04-15T15:03:05;1.83;;;1.60;;
8978;SDS011;4524;51.364;5.448;2023-04-15T15:05:38;5.17;;;1.50;;
8978;SDS011;4524;51.364;5.448;2023-04-15T15:08:06;2.23;;;1.50;;
8978;SDS011;4524;51.364;5.448;2023-04-15T15:10:35;1.70;;;1.40;;
8978;SDS011;4524;51.364;5.448;2023-04-15T15:13:14;1.70;;;1.33;;
8978;SDS011;4524;51.364;5.448;2023-04-15T15:15:43;2.37;;;1.50;;
8978;SDS011;4524;51.364;5.448;2023-04-15T15:18:13;1.80;;;1.37;;
8978;SDS011;4524;51.364;5.448;2023-04-15T15:20:41;2.17;;;1.50;;
8978;SDS011;4524;51.364;5.448;2023-04-15T15:23:09;1.63;;;1.27;;
8978;SDS011;4524;51.364;5.448;2023-04-15T15:25:37;1.80;;;1.00;;
8978;SDS011;4524;51.364;5.448;2023-04-15T15:28:05;2.17;;;1.40;;
8978;SDS011;4524;51.364;5.448;2023-04-15T15:30:33;2.00;;;1.30;;
8978;SDS011;4524;51.364;5.448;2023-04-15T15:33:01;2.60;;;1.43;;
8978;SDS011;4524;51.364;5.448;2023-04-15T15:35:30;2.00;;;1.00;;